Time;durP1;ratioP1;P1;durP2;ratioP2;P2;SDS_P1;SDS_P2;PMS_P1;PMS_P2;Temp;Humidity;BMP_temperature;BMP_pressure;BME280_temperature;BME280_humidity;BME280_pressure;Samples;Min_cycle;Max_cycle;Signal;HPM_P1;HPM_P2
2024/01/28 00:01:36;;;;;;;;;;;;;;;4.78;54.73;102223.66;6059831;23;7182;-75
2024/01/28 00:04:02;;;;;;;;;;;;;;;4.79;54.93;102214.41;6061932;23;6826;-75
2024/01/28 00:06:28;;;;;;;;;;;;;;;4.79;55.39;102214.41;6059964;23;7149;-75
2024/01/28 00:08:53;;;;;;;;;;;;;;;4.83;55.57;102213.97;6061280;23;7253;-75
2024/01/28 00:11:19;;;;;;;;;;;;;;;4.84;55.22;102209.03;6061046;23;6762;-77
2024/01/28 00:13:45;;;;;;;;;;;;;;;4.85;55.26;102200.69;6035975;23;8078;-77
2024/01/28 00:16:15;;;;;;;;;;;;;;;4.90;55.07;102190.06;6061761;23;6766;-77
2024/01/28 00:18:41;;;;;;;;;;;;;;;4.92;55.10;102191.09;6059912;23;7265;-77
2024/01/28 00:21:07;;;;;;;;;;;;;;;4.93;55.12;102190.38;6036323;23;7086;-77
2024/01/28 00:23:33;;;;;;;;;;;;;;;4.95;55.30;102193.97;6059947;23;7111;-77
2024/01/28 00:25:59;;;;;;;;;;;;;;;4.96;55.39;102189.00;6061928;23;7160;-78
2024/01/28 00:28:24;;;;;;;;;;;;;;;4.98;55.00;102177.38;6060198;23;7002;-77
2024/01/28 00:30:50;;;;;;;;;;;;;;;5.00;55.40;102169.88;6059505;23;6766;-77
2024/01/28 00:33:15;;;;;;;;;;;;;;;4.98;55.04;102161.22;6083766;23;6800;-77
2024/01/28 00:35:41;;;;;;;;;;;;;;;4.99;55.44;102170.63;6060476;23;6755;-77
2024/01/28 00:38:07;;;;;;;;;;;;;;;4.97;55.62;102161.97;6082774;23;7110;-77
2024/01/28 00:40:33;;;;;;;;;;;;;;;4.96;55.17;102160.19;6037400;23;6966;-77
2024/01/28 00:42:58;;;;;;;;;;;;;;;4.94;55.18;102154.06;6061811;23;6912;-77
2024/01/28 00:45:24;;;;;;;;;;;;;;;4.93;55.25;102142.09;6038120;23;7271;-77
2024/01/28 00:47:51;;;;;;;;;;;;;;;4.92;55.41;102150.44;6061505;23;7172;-77
2024/01/28 00:50:16;;;;;;;;;;;;;;;4.90;54.68;102144.31;6062569;23;6779;-77
2024/01/28 00:52:43;;;;;;;;;;;;;;;4.89;54.98;102148.53;6085655;23;7150;-75
2024/01/28 00:55:09;;;;;;;;;;;;;;;4.87;55.12;102147.44;6061817;23;8088;-75
2024/01/28 00:57:35;;;;;;;;;;;;;;;4.87;55.10;102144.91;6061053;23;6981;-75
2024/01/28 01:00:01;;;;;;;;;;;;;;;4.85;54.73;102141.31;6085079;23;9598;-75
2024/01/28 01:02:26;;;;;;;;;;;;;;;4.84;54.46;102134.44;6060402;23;6945;-75
2024/01/28 01:04:52;;;;;;;;;;;;;;;4.84;54.62;102131.91;6062209;23;6767;-75
2024/01/28 01:07:17;;;;;;;;;;;;;;;4.80;54.91;102123.09;6037086;23;7210;-75
2024/01/28 01:09:43;;;;;;;;;;;;;;;4.78;54.95;102121.13;6037093;23;6791;-76
2024/01/28 01:12:09;;;;;;;;;;;;;;;4.73;54.49;102116.50;6061462;23;7161;-75
2024/01/28 01:14:37;;;;;;;;;;;;;;;4.71;54.62;102117.09;6061698;23;6770;-75
2024/01/28 01:17:04;;;;;;;;;;;;;;;4.69;55.12;102113.50;6061367;23;7226;-75
2024/01/28 01:19:30;;;;;;;;;;;;;;;4.66;54.84;102105.59;6061064;23;6779;-75
2024/01/28 01:21:57;;;;;;;;;;;;;;;4.64;54.68;102100.34;6061839;23;6763;-75
2024/01/28 01:24:23;;;;;;;;;;;;;;;4.63;54.99;102110.34;6062229;23;6779;-75
2024/01/28 01:26:51;;;;;;;;;;;;;;;4.61;54.78;102107.66;6059736;23;7209;-75
2024/01/28 01:29:16;;;;;;;;;;;;;;;4.58;54.52;102115.88;6060899;23;7088;-75
2024/01/28 01:31:42;;;;;;;;;;;;;;;4.55;55.24;102107.97;6059566;23;7978;-76
2024/01/28 01:34:07;;;;;;;;;;;;;;;4.54;55.13;102102.72;6061552;23;6774;-75
2024/01/28 01:36:33;;;;;;;;;;;;;;;4.54;54.77;102103.63;6059755;23;6835;-76
2024/01/28 01:38:59;;;;;;;;;;;;;;;4.54;54.98;102098.56;6059714;23;6762;-75
2024/01/28 01:41:25;;;;;;;;;;;;;;;4.54;54.92;102103.63;6062859;23;7143;-75
2024/01/28 01:43:52;;;;;;;;;;;;;;;4.52;54.79;102105.09;6037209;23;6957;-75
2024/01/28 01:46:19;;;;;;;;;;;;;;;4.49;55.03;102107.34;6036341;23;6963;-75
2024/01/28 01:48:46;;;;;;;;;;;;;;;4.46;54.99;102109.59;6061049;23;7640;-75
2024/01/28 01:51:12;;;;;;;;;;;;;;;4.44;55.17;102105.97;6060796;23;7078;-75
2024/01/28 01:53:39;;;;;;;;;;;;;;;4.42;54.56;102099.84;6060990;23;6961;-75
2024/01/28 01:56:05;;;;;;;;;;;;;;;4.43;55.42;102099.09;6060446;23;6950;-75
2024/01/28 01:58:32;;;;;;;;;;;;;;;4.42;54.92;102098.22;6036852;23;6990;-75
2024/01/28 02:00:59;;;;;;;;;;;;;;;4.41;54.93;102092.97;6036457;23;8206;-75
2024/01/28 02:03:27;;;;;;;;;;;;;;;4.41;54.99;102096.44;6061287;23;7052;-75
2024/01/28 02:05:53;;;;;;;;;;;;;;;4.40;55.17;102101.34;6037776;23;6963;-75
2024/01/28 02:08:19;;;;;;;;;;;;;;;4.37;54.75;102103.59;6036069;23;6957;-75
2024/01/28 02:10:46;;;;;;;;;;;;;;;4.36;55.21;102101.78;6036873;23;6934;-75
2024/01/28 02:13:11;;;;;;;;;;;;;;;4.34;54.93;102098.16;6060337;23;6941;-75
2024/01/28 02:15:38;;;;;;;;;;;;;;;4.32;54.50;102100.56;6061094;23;6944;-75
2024/01/28 02:18:04;;;;;;;;;;;;;;;4.29;54.54;102097.72;6041306;23;6950;-75
2024/01/28 02:20:30;;;;;;;;;;;;;;;4.26;54.58;102095.78;6065134;23;6783;-75
2024/01/28 02:22:57;;;;;;;;;;;;;;;4.24;54.71;102097.25;6041974;23;7005;-75
2024/01/28 02:25:22;;;;;;;;;;;;;;;4.23;55.42;102085.31;6067194;23;7034;-75
2024/01/28 02:27:48;;;;;;;;;;;;;;;4.23;55.22;102087.84;6066258;23;6938;-75
2024/01/28 02:30:15;;;;;;;;;;;;;;;4.20;54.44;102079.00;6089815;23;6953;-75
2024/01/28 02:32:51;;;;;;;;;;;;;;;4.17;54.81;102067.81;6065972;23;6783;-75
2024/01/28 02:35:18;;;;;;;;;;;;;;;4.14;54.67;102074.22;6066232;23;6935;-75
2024/01/28 02:37:44;;;;;;;;;;;;;;;4.13;54.67;102077.50;6040893;23;6982;-75
2024/01/28 02:40:10;;;;;;;;;;;;;;;4.12;54.92;102078.25;6064929;23;6759;-75
2024/01/28 02:42:37;;;;;;;;;;;;;;;4.09;55.26;102076.28;6041357;23;6983;-75
2024/01/28 02:45:03;;;;;;;;;;;;;;;4.07;54.67;102072.72;6065081;23;6763;-75
2024/01/28 02:47:28;;;;;;;;;;;;;;;4.03;55.28;102076.56;6116745;23;7170;-75
2024/01/28 02:49:54;;;;;;;;;;;;;;;4.00;54.34;102080.44;6068254;23;6970;-75
2024/01/28 02:52:19;;;;;;;;;;;;;;;3.96;54.41;102071.66;6043401;23;7111;-75
2024/01/28 02:54:45;;;;;;;;;;;;;;;3.91;54.81;102062.66;6064084;23;6945;-75
2024/01/28 02:57:11;;;;;;;;;;;;;;;3.86;54.63;102059.66;6089382;23;6939;-75
2024/01/28 02:59:36;;;;;;;;;;;;;;;3.86;55.07;102063.81;6065190;23;6759;-75
2024/01/28 03:02:03;;;;;;;;;;;;;;;3.81;55.35;102058.25;6066471;23;6831;-75
2024/01/28 03:04:28;;;;;;;;;;;;;;;3.80;54.91;102046.31;6067243;23;6949;-75
2024/01/28 03:06:54;;;;;;;;;;;;;;;3.77;54.70;102042.56;6068290;23;6759;-75
2024/01/28 03:09:20;;;;;;;;;;;;;;;3.75;55.69;102042.44;6041135;23;6953;-75
2024/01/28 03:11:45;;;;;;;;;;;;;;;3.72;55.02;102043.03;6114641;23;7018;-75
2024/01/28 03:14:11;;;;;;;;;;;;;;;3.72;55.16;102048.09;6067177;23;6762;-75
2024/01/28 03:16:37;;;;;;;;;;;;;;;3.73;55.88;102039.75;6066812;23;6786;-75
2024/01/28 03:19:03;;;;;;;;;;;;;;;3.77;54.96;102037.50;6066510;23;6775;-75
2024/01/28 03:21:29;;;;;;;;;;;;;;;3.76;55.53;102031.56;6041844;23;7097;-75
2024/01/28 03:23:55;;;;;;;;;;;;;;;3.79;55.63;102025.91;6068014;23;6842;-75
2024/01/28 03:26:22;;;;;;;;;;;;;;;3.78;55.11;102026.66;6066708;23;6968;-75
2024/01/28 03:28:48;;;;;;;;;;;;;;;3.79;55.42;102018.28;6112231;23;8455;-74
2024/01/28 03:31:14;;;;;;;;;;;;;;;3.78;55.24;102021.56;6063527;23;6859;-72
2024/01/28 03:33:40;;;;;;;;;;;;;;;3.75;55.02;102015.41;6112868;23;7246;-73
2024/01/28 03:36:06;;;;;;;;;;;;;;;3.73;55.46;102011.84;6087721;23;6973;-74
2024/01/28 03:38:32;;;;;;;;;;;;;;;3.71;54.77;102005.72;6039756;23;6984;-72
2024/01/28 03:40:57;;;;;;;;;;;;;;;3.67;54.97;102001.09;6064948;23;6819;-74
2024/01/28 03:43:23;;;;;;;;;;;;;;;3.65;55.36;102006.75;6066062;23;6980;-72
2024/01/28 03:45:49;;;;;;;;;;;;;;;3.64;54.99;102004.97;6064108;23;6923;-73
2024/01/28 03:48:14;;;;;;;;;;;;;;;3.61;55.03;102001.34;6040703;23;6942;-73
2024/01/28 03:50:40;;;;;;;;;;;;;;;3.62;55.50;101999.72;6064165;23;6950;-73
2024/01/28 03:53:05;;;;;;;;;;;;;;;3.63;55.54;102001.50;6063528;23;6910;-72
2024/01/28 03:55:31;;;;;;;;;;;;;;;3.63;54.76;102006.56;6062536;23;6951;-73
2024/01/28 03:57:56;;;;;;;;;;;;;;;3.63;55.49;102005.69;6063394;23;6990;-72
2024/01/28 04:00:28;;;;;;;;;;;;;;;3.63;55.66;102011.66;6063429;23;6849;-73
2024/01/28 04:02:54;;;;;;;;;;;;;;;3.63;55.60;102011.66;6064626;23;7034;-72
2024/01/28 04:05:20;;;;;;;;;;;;;;;3.62;54.69;102009.84;6064109;23;6775;-74
2024/01/28 04:07:46;;;;;;;;;;;;;;;3.59;55.49;102007.91;6040387;23;7110;-73
2024/01/28 04:10:15;;;;;;;;;;;;;;;3.58;55.65;102008.66;6063094;23;6955;-72
2024/01/28 04:12:41;;;;;;;;;;;;;;;3.55;54.76;102009.97;6064274;23;6953;-73
2024/01/28 04:15:07;;;;;;;;;;;;;;;3.53;55.01;102006.38;6067658;23;7161;-74
2024/01/28 04:17:33;;;;;;;;;;;;;;;3.54;55.25;102005.63;6066264;23;7190;-74
2024/01/28 04:19:58;;;;;;;;;;;;;;;3.51;55.42;102002.81;6065492;23;6767;-74
2024/01/28 04:22:24;;;;;;;;;;;;;;;3.51;55.02;102003.69;6065499;23;6755;-72
2024/01/28 04:24:50;;;;;;;;;;;;;;;3.51;54.94;101998.59;6065392;23;6835;-74
2024/01/28 04:27:15;;;;;;;;;;;;;;;3.51;55.97;101996.06;6090227;23;8363;-73
2024/01/28 04:29:43;;;;;;;;;;;;;;;3.52;55.42;101994.44;6065670;23;6929;-74
2024/01/28 04:32:12;;;;;;;;;;;;;;;3.53;55.77;101994.63;6066098;23;6775;-74
2024/01/28 04:34:37;;;;;;;;;;;;;;;3.55;55.73;101992.22;6114920;23;7001;-75
2024/01/28 04:37:03;;;;;;;;;;;;;;;3.57;55.70;101988.19;6068562;23;6970;-76
2024/01/28 04:39:29;;;;;;;;;;;;;;;3.59;55.76;101991.81;6075010;23;7217;-75
2024/01/28 04:41:55;;;;;;;;;;;;;;;3.62;55.97;101989.56;6098069;23;6920;-75
2024/01/28 04:44:21;;;;;;;;;;;;;;;3.65;56.07;101992.41;6098467;23;6944;-77
2024/01/28 04:46:48;;;;;;;;;;;;;;;3.68;55.51;101997.81;6075340;23;6783;-76
2024/01/28 04:49:14;;;;;;;;;;;;;;;3.71;55.80;101982.91;6076037;23;6948;-76
2024/01/28 04:51:40;;;;;;;;;;;;;;;3.72;55.84;101987.22;6073648;23;6915;-77
2024/01/28 04:54:06;;;;;;;;;;;;;;;3.74;55.61;101982.31;6073089;23;6783;-77
2024/01/28 04:56:32;;;;;;;;;;;;;;;3.76;55.52;101975.75;6074095;23;6759;-76
2024/01/28 04:58:58;;;;;;;;;;;;;;;3.77;55.27;101974.09;6098476;23;6941;-78
2024/01/28 05:01:24;;;;;;;;;;;;;;;3.75;55.52;101972.31;6071738;23;6754;-75
2024/01/28 05:03:49;;;;;;;;;;;;;;;3.76;55.77;101970.69;6074470;23;6767;-77
2024/01/28 05:06:15;;;;;;;;;;;;;;;3.73;55.22;101971.25;6076463;23;7304;-77
2024/01/28 05:08:41;;;;;;;;;;;;;;;3.71;55.37;101965.16;6072727;23;6937;-77
2024/01/28 05:11:06;;;;;;;;;;;;;;;3.69;55.48;101971.72;6072093;23;6951;-77
2024/01/28 05:13:32;;;;;;;;;;;;;;;3.67;55.11;101968.13;6046877;23;7129;-75
2024/01/28 05:15:58;;;;;;;;;;;;;;;3.66;54.88;101965.44;6071480;23;6858;-76
2024/01/28 05:18:24;;;;;;;;;;;;;;;3.63;54.66;101960.94;6120228;23;6939;-75
2024/01/28 05:20:49;;;;;;;;;;;;;;;3.59;55.13;101967.31;6072792;23;7247;-77
2024/01/28 05:23:16;;;;;;;;;;;;;;;3.56;54.85;101974.63;6072745;23;6770;-78
2024/01/28 05:25:41;;;;;;;;;;;;;;;3.57;55.35;101962.84;6045451;23;7277;-78
2024/01/28 05:28:08;;;;;;;;;;;;;;;3.57;55.10;101962.84;6072285;23;6994;-77
2024/01/28 05:30:34;;;;;;;;;;;;;;;3.59;55.73;101956.31;6071208;23;6779;-77
2024/01/28 05:33:00;;;;;;;;;;;;;;;3.61;55.20;101942.13;6072773;23;6778;-77
2024/01/28 05:35:26;;;;;;;;;;;;;;;3.64;55.32;101941.56;6047308;23;7001;-78
2024/01/28 05:37:51;;;;;;;;;;;;;;;3.66;55.64;101940.94;6071389;23;6755;-77
2024/01/28 05:40:18;;;;;;;;;;;;;;;3.67;55.33;101935.16;6047669;23;6999;-78
2024/01/28 05:42:44;;;;;;;;;;;;;;;3.69;55.39;101941.28;6096293;23;6978;-78
2024/01/28 05:45:09;;;;;;;;;;;;;;;3.69;55.71;101941.28;6072525;23;6941;-78
2024/01/28 05:47:35;;;;;;;;;;;;;;;3.71;55.79;101947.38;6090172;23;7408;-76
2024/01/28 05:50:02;;;;;;;;;;;;;;;3.71;55.54;101937.25;6061446;23;6861;-75
2024/01/28 05:52:27;;;;;;;;;;;;;;;3.70;55.73;101938.00;6108548;23;7067;-75
2024/01/28 05:54:53;;;;;;;;;;;;;;;3.72;55.29;101933.97;6060143;23;6921;-76
2024/01/28 05:57:18;;;;;;;;;;;;;;;3.73;56.08;101935.75;6060373;23;7381;-75
2024/01/28 05:59:44;;;;;;;;;;;;;;;3.74;55.93;101934.13;6057883;23;6980;-75
2024/01/28 06:02:10;;;;;;;;;;;;;;;3.75;55.38;101930.84;6057595;23;7176;-75
2024/01/28 06:04:35;;;;;;;;;;;;;;;3.73;56.22;101930.69;6060435;23;7042;-76
2024/01/28 06:07:01;;;;;;;;;;;;;;;3.71;55.96;101928.72;6060900;23;7241;-75
2024/01/28 06:09:27;;;;;;;;;;;;;;;3.68;55.47;101924.28;6061160;23;7242;-75
2024/01/28 06:11:53;;;;;;;;;;;;;;;3.67;55.61;101932.63;6060805;23;7081;-75
2024/01/28 06:14:18;;;;;;;;;;;;;;;3.65;55.71;101923.94;6060718;23;7201;-76
2024/01/28 06:16:45;;;;;;;;;;;;;;;3.64;55.22;101924.69;6060351;23;6747;-75
2024/01/28 06:19:10;;;;;;;;;;;;;;;3.61;55.66;101924.38;6060187;23;7194;-76
2024/01/28 06:21:36;;;;;;;;;;;;;;;3.60;55.76;101920.06;6062336;23;6770;-75
2024/01/28 06:24:01;;;;;;;;;;;;;;;3.59;55.90;101923.34;6085572;23;8223;-75
2024/01/28 06:26:28;;;;;;;;;;;;;;;3.59;55.83;101923.34;6059976;23;6779;-75
2024/01/28 06:28:54;;;;;;;;;;;;;;;3.58;55.83;101917.38;6061218;23;6831;-75
2024/01/28 06:31:20;;;;;;;;;;;;;;;3.58;55.94;101912.28;6048526;23;7811;-75
2024/01/28 06:33:46;;;;;;;;;;;;;;;3.58;56.67;101912.28;6089774;23;7449;-75
2024/01/28 06:36:21;;;;;;;;;;;;;;;3.61;56.36;101914.25;6088724;23;6767;-75
2024/01/28 06:38:47;;;;;;;;;;;;;;;3.63;55.93;101917.81;6088127;23;6767;-75
2024/01/28 06:41:16;;;;;;;;;;;;;;;3.65;56.63;101901.13;6090521;23;7000;-75
2024/01/28 06:43:42;;;;;;;;;;;;;;;3.66;56.39;101905.44;6089622;23;6755;-75
2024/01/28 06:46:08;;;;;;;;;;;;;;;3.68;56.34;101909.06;6089630;23;6755;-75
2024/01/28 06:48:34;;;;;;;;;;;;;;;3.69;56.75;101907.41;6091935;23;7003;-75
2024/01/28 06:51:04;;;;;;;;;;;;;;;3.69;56.54;101898.16;6089352;23;6923;-75
2024/01/28 06:53:30;;;;;;;;;;;;;;;3.70;56.10;101896.50;6089677;23;6941;-76
2024/01/28 06:55:55;;;;;;;;;;;;;;;3.71;56.44;101893.22;6087122;23;6750;-75
2024/01/28 06:58:21;;;;;;;;;;;;;;;3.71;56.65;101891.59;6091493;23;6767;-73
2024/01/28 07:00:47;;;;;;;;;;;;;;;3.71;56.09;101896.66;6067091;23;7044;-75
2024/01/28 07:03:12;;;;;;;;;;;;;;;3.72;56.63;101895.03;6092362;23;6922;-73
2024/01/28 07:05:38;;;;;;;;;;;;;;;3.72;56.16;101893.38;6094670;23;7167;-74
2024/01/28 07:08:06;;;;;;;;;;;;;;;3.75;56.55;101895.34;6089002;23;6848;-73
2024/01/28 07:10:32;;;;;;;;;;;;;;;3.75;55.93;101891.16;6092571;23;6774;-73
2024/01/28 07:12:58;;;;;;;;;;;;;;;3.77;56.27;101893.84;6092498;23;6842;-74
2024/01/28 07:15:23;;;;;;;;;;;;;;;3.80;56.95;101893.25;6092784;23;7112;-73
2024/01/28 07:17:49;;;;;;;;;;;;;;;3.81;56.30;101895.94;6116057;23;7024;-72
2024/01/28 07:20:16;;;;;;;;;;;;;;;3.82;56.54;101890.13;6093643;23;7091;-72
2024/01/28 07:22:42;;;;;;;;;;;;;;;3.83;56.04;101888.47;6095291;23;6841;-72
2024/01/28 07:25:08;;;;;;;;;;;;;;;3.84;56.17;101878.50;6092952;23;6755;-73
2024/01/28 07:27:34;;;;;;;;;;;;;;;3.85;56.29;101880.28;6093424;23;7105;-73
2024/01/28 07:29:59;;;;;;;;;;;;;;;3.89;56.78;101884.03;6094026;23;6844;-73
2024/01/28 07:32:25;;;;;;;;;;;;;;;3.93;56.75;101880.16;6093295;23;6870;-74
2024/01/28 07:34:50;;;;;;;;;;;;;;;3.96;56.46;101881.34;6094057;23;6755;-73
2024/01/28 07:37:16;;;;;;;;;;;;;;;4.00;56.72;101888.50;6069019;23;6918;-73
2024/01/28 07:39:42;;;;;;;;;;;;;;;4.02;56.55;101876.88;6091401;23;7074;-75
2024/01/28 07:42:07;;;;;;;;;;;;;;;4.06;56.12;101872.13;6066616;23;7584;-73
2024/01/28 07:44:33;;;;;;;;;;;;;;;4.09;56.13;101862.25;6093336;23;6923;-74
2024/01/28 07:47:00;;;;;;;;;;;;;;;4.12;55.88;101862.53;6093535;23;6976;-74
2024/01/28 07:49:26;;;;;;;;;;;;;;;4.14;56.46;101864.50;6096871;23;6771;-72
2024/01/28 07:51:51;;;;;;;;;;;;;;;4.16;56.16;101864.66;6095999;23;6915;-72
2024/01/28 07:54:18;;;;;;;;;;;;;;;4.20;56.42;101859.13;6093224;23;6822;-76
2024/01/28 07:56:44;;;;;;;;;;;;;;;4.22;56.41;101860.16;6092791;23;6969;-73
2024/01/28 07:59:09;;;;;;;;;;;;;;;4.26;55.81;101857.19;6093546;23;7239;-74
2024/01/28 08:01:35;;;;;;;;;;;;;;;4.29;55.90;101852.38;6075006;23;6947;-72
2024/01/28 08:04:01;;;;;;;;;;;;;;;4.34;56.02;101854.47;6039244;23;7163;-72
2024/01/28 08:06:28;;;;;;;;;;;;;;;4.35;56.30;101847.00;6064802;23;6929;-75
2024/01/28 08:08:54;;;;;;;;;;;;;;;4.38;56.46;101846.41;6090474;23;6771;-75
2024/01/28 08:11:19;;;;;;;;;;;;;;;4.42;56.30;101851.03;6067521;23;6869;-75
2024/01/28 08:13:45;;;;;;;;;;;;;;;4.44;56.29;101839.38;6067163;23;7043;-75
2024/01/28 08:16:11;;;;;;;;;;;;;;;4.49;56.03;101848.34;6043029;23;8389;-75
2024/01/28 08:18:38;;;;;;;;;;;;;;;4.53;55.80;101850.41;6032790;23;6941;-75
2024/01/28 08:21:05;;;;;;;;;;;;;;;4.58;56.25;101845.75;6068503;23;6966;-75
2024/01/28 08:23:30;;;;;;;;;;;;;;;4.63;55.80;101848.75;6068533;23;6774;-75
2024/01/28 08:25:56;;;;;;;;;;;;;;;4.68;56.05;101842.47;6067588;23;6938;-75
2024/01/28 08:28:22;;;;;;;;;;;;;;;4.73;55.68;101836.16;6043949;23;6926;-75
2024/01/28 08:30:48;;;;;;;;;;;;;;;4.78;55.65;101834.06;6043062;23;7206;-75
2024/01/28 08:33:14;;;;;;;;;;;;;;;4.84;55.62;101829.56;6044191;23;6959;-75
2024/01/28 08:35:40;;;;;;;;;;;;;;;4.91;56.03;101831.94;6066957;23;6998;-75
2024/01/28 08:38:06;;;;;;;;;;;;;;;4.97;55.59;101836.69;6067569;23;7018;-75
2024/01/28 08:40:31;;;;;;;;;;;;;;;5.03;55.29;101836.38;6066700;23;6767;-75
2024/01/28 08:42:57;;;;;;;;;;;;;;;5.10;55.73;101836.22;6067699;23;6755;-75
2024/01/28 08:45:23;;;;;;;;;;;;;;;5.16;55.64;101839.28;6067107;23;7158;-75
2024/01/28 08:47:49;;;;;;;;;;;;;;;5.24;55.72;101838.38;6067870;23;6775;-75
2024/01/28 08:50:15;;;;;;;;;;;;;;;5.31;55.73;101834.78;6045242;23;6969;-75
2024/01/28 08:52:42;;;;;;;;;;;;;;;5.37;55.50;101835.31;6042781;23;6960;-75
2024/01/28 08:55:09;;;;;;;;;;;;;;;5.44;55.68;101833.34;6065486;23;6767;-75
2024/01/28 08:57:34;;;;;;;;;;;;;;;5.50;55.22;101826.25;6067050;23;7117;-75
2024/01/28 09:00:00;;;;;;;;;;;;;;;5.58;55.13;101835.47;6041183;23;7009;-76
2024/01/28 09:02:26;;;;;;;;;;;;;;;5.66;55.32;101838.75;6066297;23;7136;-75
2024/01/28 09:04:52;;;;;;;;;;;;;;;5.71;54.85;101832.41;6040211;23;7085;-76
2024/01/28 09:07:18;;;;;;;;;;;;;;;5.77;54.84;101832.06;6065437;23;6970;-75
2024/01/28 09:09:43;;;;;;;;;;;;;;;5.85;54.47;101836.22;6065037;23;6823;-76
2024/01/28 09:12:09;;;;;;;;;;;;;;;5.92;55.02;101830.00;6067305;23;7037;-75
2024/01/28 09:14:36;;;;;;;;;;;;;;;5.98;54.54;101826.34;6090898;23;6974;-75
2024/01/28 09:17:02;;;;;;;;;;;;;;;6.06;54.30;101828.72;6044217;23;7039;-75
2024/01/28 09:19:28;;;;;;;;;;;;;;;6.12;54.37;101824.19;6072305;23;7136;-76
2024/01/28 09:21:55;;;;;;;;;;;;;;;6.19;54.54;101824.00;6049018;23;6908;-75
2024/01/28 09:24:20;;;;;;;;;;;;;;;6.27;54.40;101823.75;6071853;23;6930;-78
2024/01/28 09:26:46;;;;;;;;;;;;;;;6.33;53.80;101822.66;6085181;23;7078;-75
2024/01/28 09:29:12;;;;;;;;;;;;;;;6.41;54.27;101823.34;6059353;23;6986;-76
2024/01/28 09:31:38;;;;;;;;;;;;;;;6.50;53.70;101820.69;6045771;23;7022;-76
2024/01/28 09:34:04;;;;;;;;;;;;;;;6.57;54.07;101817.91;6071089;23;7086;-77
2024/01/28 09:36:29;;;;;;;;;;;;;;;6.64;53.01;101816.78;6076825;23;7041;-76
2024/01/28 09:38:55;;;;;;;;;;;;;;;6.70;53.89;101819.88;6074944;23;6928;-77
2024/01/28 09:41:49;;;;;;;;;;;;;;;6.78;53.75;101817.97;6071529;23;7058;-76
2024/01/28 09:44:14;;;;;;;;;;;;;;;6.82;53.83;101814.97;6065342;23;6775;-76
2024/01/28 09:46:41;;;;;;;;;;;;;;;6.86;53.64;101817.00;6063926;23;6941;-76
2024/01/28 09:49:11;;;;;;;;;;;;;;;6.92;53.67;101816.63;6066104;23;7257;-77
2024/01/28 09:51:38;;;;;;;;;;;;;;;6.95;53.41;101802.47;6066611;23;6775;-75
2024/01/28 09:54:04;;;;;;;;;;;;;;;7.03;53.50;101808.22;6066617;23;6775;-77
2024/01/28 09:56:31;;;;;;;;;;;;;;;7.08;53.38;101806.06;6091571;23;6944;-77
2024/01/28 09:58:59;;;;;;;;;;;;;;;7.15;52.92;101810.94;6086914;23;6943;-76
2024/01/28 10:01:26;;;;;;;;;;;;;;;7.21;53.30;101815.66;6040814;23;7307;-76
2024/01/28 10:03:54;;;;;;;;;;;;;;;7.30;53.28;101810.44;6040569;23;6974;-76
2024/01/28 10:06:20;;;;;;;;;;;;;;;7.34;52.71;101813.38;6063675;23;6955;-76
2024/01/28 10:08:46;;;;;;;;;;;;;;;7.43;52.80;101807.22;6066500;23;6771;-76
2024/01/28 10:11:14;;;;;;;;;;;;;;;7.49;53.02;101815.41;6088526;23;6960;-75
2024/01/28 10:13:40;;;;;;;;;;;;;;;7.57;53.41;101811.84;6065585;23;6775;-77
2024/01/28 10:16:07;;;;;;;;;;;;;;;7.64;52.99;101809.03;6041622;23;6938;-76
2024/01/28 10:18:32;;;;;;;;;;;;;;;7.74;52.53;101804.69;6065874;23;7223;-76
2024/01/28 10:20:58;;;;;;;;;;;;;;;7.96;53.38;101809.00;6041151;23;7221;-76
2024/01/28 10:23:23;;;;;;;;;;;;;;;8.69;53.56;101802.91;6066334;23;6771;-77
2024/01/28 10:25:49;;;;;;;;;;;;;;;9.92;52.10;101791.56;6044543;23;6927;-76
2024/01/28 10:28:19;;;;;;;;;;;;;;;11.24;49.86;101790.50;6042592;23;7144;-76
2024/01/28 10:30:49;;;;;;;;;;;;;;;12.54;48.00;101781.66;6065532;23;6775;-76
2024/01/28 10:33:15;;;;;;;;;;;;;;;13.63;46.11;101777.84;6041755;23;7025;-76
2024/01/28 10:35:40;;;;;;;;;;;;;;;14.57;44.96;101769.22;6089893;23;6762;-77
2024/01/28 10:38:15;;;;;;;;;;;;;;;15.52;43.62;101770.59;6068328;23;7232;-76
2024/01/28 10:40:45;;;;;;;;;;;;;;;16.32;41.92;101759.75;6069193;23;6771;-76
2024/01/28 10:43:15;;;;;;;;;;;;;;;17.04;40.59;101753.44;6068403;23;6843;-76
2024/01/28 10:45:43;;;;;;;;;;;;;;;17.68;39.34;101751.78;6046370;23;6958;-76
2024/01/28 10:48:17;;;;;;;;;;;;;;;18.19;38.40;101758.09;6043875;23;6937;-76
2024/01/28 10:50:43;;;;;;;;;;;;;;;18.57;38.09;101755.19;6044364;23;6960;-77
2024/01/28 10:53:12;;;;;;;;;;;;;;;18.83;36.77;101750.03;6038043;23;6953;-77
2024/01/28 10:55:40;;;;;;;;;;;;;;;19.14;36.80;101743.34;6041560;23;7141;-76
2024/01/28 10:58:06;;;;;;;;;;;;;;;19.42;35.82;101734.75;6071722;23;7123;-76
2024/01/28 11:00:33;;;;;;;;;;;;;;;19.74;35.19;101726.22;6070310;23;6988;-76
2024/01/28 11:03:00;;;;;;;;;;;;;;;20.02;34.86;101724.50;6050887;23;7190;-76
2024/01/28 11:05:27;;;;;;;;;;;;;;;20.33;34.45;101722.78;6049471;23;6959;-76
2024/01/28 11:07:59;;;;;;;;;;;;;;;20.62;33.87;101717.50;6066422;23;7165;-76
2024/01/28 11:10:27;;;;;;;;;;;;;;;20.80;33.62;101718.84;6066555;23;7411;-76
2024/01/28 11:12:54;;;;;;;;;;;;;;;20.98;33.15;101712.41;6065257;23;6838;-76
2024/01/28 11:15:20;;;;;;;;;;;;;;;21.10;32.88;101712.72;6061621;23;6775;-76
2024/01/28 11:17:47;;;;;;;;;;;;;;;21.17;32.37;101706.81;6060936;23;6838;-76
2024/01/28 11:20:17;;;;;;;;;;;;;;;21.22;32.26;101699.97;6063093;23;7392;-76
2024/01/28 11:22:56;;;;;;;;;;;;;;;21.34;31.94;101690.69;6038100;23;6954;-76
2024/01/28 11:25:27;;;;;;;;;;;;;;;21.51;31.71;101699.78;6060830;23;7438;-76
2024/01/28 11:28:03;;;;;;;;;;;;;;;21.57;31.53;101678.19;6061884;23;7033;-76
2024/01/28 11:30:29;;;;;;;;;;;;;;;21.54;31.25;101693.78;6038062;23;7504;-76
2024/01/28 11:33:14;;;;;;;;;;;;;;;21.51;31.63;101684.13;6061753;23;6775;-76
2024/01/28 11:35:43;;;;;;;;;;;;;;;21.58;31.28;101684.28;6061940;23;6771;-76
2024/01/28 11:38:14;;;;;;;;;;;;;;;21.67;31.12;101676.72;6084929;23;6977;-76
2024/01/28 11:40:41;;;;;;;;;;;;;;;21.75;30.75;101682.97;6062185;23;7375;-75
2024/01/28 11:43:08;;;;;;;;;;;;;;;21.78;30.46;101672.59;6062121;23;6980;-75
2024/01/28 11:45:38;;;;;;;;;;;;;;;21.96;30.29;101683.38;6062049;23;6938;-76
2024/01/28 11:48:09;;;;;;;;;;;;;;;22.01;30.11;101680.03;6040993;23;6965;-77
2024/01/28 11:50:35;;;;;;;;;;;;;;;22.19;29.98;101678.66;6066161;23;6981;-76
2024/01/28 11:53:01;;;;;;;;;;;;;;;22.31;29.87;101676.31;6065709;23;6907;-76
2024/01/28 11:55:26;;;;;;;;;;;;;;;22.36;29.31;101668.56;6064737;23;6917;-75
2024/01/28 11:57:52;;;;;;;;;;;;;;;22.39;29.20;101675.53;6067321;23;6931;-76
2024/01/28 12:00:19;;;;;;;;;;;;;;;22.48;29.46;101673.09;6056959;23;7089;-75
2024/01/28 12:02:45;;;;;;;;;;;;;;;22.71;29.01;101667.47;6092012;23;7092;-75
2024/01/28 12:05:11;;;;;;;;;;;;;;;22.89;28.74;101665.19;6114480;23;6799;-76
2024/01/28 12:07:38;;;;;;;;;;;;;;;23.01;28.94;101655.78;6111486;23;7165;-75
2024/01/28 12:10:08;;;;;;;;;;;;;;;23.14;28.50;101649.88;6112323;23;6822;-75
2024/01/28 12:12:36;;;;;;;;;;;;;;;23.30;28.57;101651.03;6112409;23;6767;-76
2024/01/28 12:15:07;;;;;;;;;;;;;;;23.47;28.10;101646.91;6112863;23;6762;-76
2024/01/28 12:17:37;;;;;;;;;;;;;;;23.57;28.01;101646.19;6111997;23;6775;-75
2024/01/28 12:20:04;;;;;;;;;;;;;;;23.65;27.69;101639.31;6088145;23;6941;-75
2024/01/28 12:22:37;;;;;;;;;;;;;;;23.63;27.49;101630.56;6111536;23;7142;-75
2024/01/28 12:25:22;;;;;;;;;;;;;;;23.30;27.76;101634.47;6111033;23;7200;-76
2024/01/28 12:27:51;;;;;;;;;;;;;;;22.24;28.10;101642.19;6110026;23;6847;-76
2024/01/28 12:30:17;;;;;;;;;;;;;;;20.79;29.36;101650.22;6110026;23;6973;-76
2024/01/28 12:32:44;;;;;;;;;;;;;;;19.43;30.79;101635.13;6110077;23;7022;-75
2024/01/28 12:35:09;;;;;;;;;;;;;;;18.32;31.67;101646.16;6112623;23;6779;-76
2024/01/28 12:37:38;;;;;;;;;;;;;;;17.36;33.08;101645.13;6113142;23;6931;-75
2024/01/28 12:40:09;;;;;;;;;;;;;;;16.57;34.04;101636.66;6112795;23;6790;-75
2024/01/28 12:42:36;;;;;;;;;;;;;;;15.93;34.66;101628.69;6114188;23;6835;-76
2024/01/28 12:45:02;;;;;;;;;;;;;;;15.46;35.16;101636.84;6112050;23;7038;-75
2024/01/28 12:47:27;;;;;;;;;;;;;;;15.07;36.50;101622.09;6110697;23;6759;-76
2024/01/28 12:49:53;;;;;;;;;;;;;;;14.77;36.37;101621.44;6115884;23;6935;-75
2024/01/28 12:52:19;;;;;;;;;;;;;;;14.53;37.16;101628.00;6113225;23;6755;-75